sensor_id;sensor_type;location;lat;lon;timestamp;temperature;humidity
16505;HTU21D;8365;51.030;4.696;2022-08-26T00:00:06;22.58;118.99
16505;HTU21D;8365;51.030;4.696;2022-08-26T00:02:37;22.57;118.99
16505;HTU21D;8365;51.030;4.696;2022-08-26T00:05:08;22.75;118.99
16505;HTU21D;8365;51.030;4.696;2022-08-26T00:07:38;22.78;118.99
16505;HTU21D;8365;51.030;4.696;2022-08-26T00:10:09;22.58;118.99
16505;HTU21D;8365;51.030;4.696;2022-08-26T00:12:41;22.54;118.99
16505;HTU21D;8365;51.030;4.696;2022-08-26T00:15:14;22.46;118.99
16505;HTU21D;8365;51.030;4.696;2022-08-26T00:17:45;22.36;118.99
16505;HTU21D;8365;51.030;4.696;2022-08-26T00:20:19;22.38;118.99
16505;HTU21D;8365;51.030;4.696;2022-08-26T00:22:52;22.12;118.99
16505;HTU21D;8365;51.030;4.696;2022-08-26T00:25:23;22.14;118.99
16505;HTU21D;8365;51.030;4.696;2022-08-26T00:27:54;22.07;118.99
16505;HTU21D;8365;51.030;4.696;2022-08-26T00:30:27;21.89;118.99
16505;HTU21D;8365;51.030;4.696;2022-08-26T00:32:59;22.07;118.99
16505;HTU21D;8365;51.030;4.696;2022-08-26T00:35:29;22.17;118.99
16505;HTU21D;8365;51.030;4.696;2022-08-26T00:38:00;22.17;118.99
16505;HTU21D;8365;51.030;4.696;2022-08-26T00:40:38;22.29;118.99
16505;HTU21D;8365;51.030;4.696;2022-08-26T00:43:10;22.19;118.99
16505;HTU21D;8365;51.030;4.696;2022-08-26T00:45:48;22.20;118.99
16505;HTU21D;8365;51.030;4.696;2022-08-26T00:48:22;22.12;118.99
16505;HTU21D;8365;51.030;4.696;2022-08-26T00:51:03;22.08;118.99
16505;HTU21D;8365;51.030;4.696;2022-08-26T00:53:39;22.21;118.99
16505;HTU21D;8365;51.030;4.696;2022-08-26T00:56:30;21.98;118.99
16505;HTU21D;8365;51.030;4.696;2022-08-26T00:59:06;22.03;118.99
16505;HTU21D;8365;51.030;4.696;2022-08-26T01:01:37;22.11;118.99
16505;HTU21D;8365;51.030;4.696;2022-08-26T01:04:10;22.10;118.99
16505;HTU21D;8365;51.030;4.696;2022-08-26T01:06:43;22.21;118.99
16505;HTU21D;8365;51.030;4.696;2022-08-26T01:09:15;22.25;118.99
16505;HTU21D;8365;51.030;4.696;2022-08-26T01:11:48;22.19;118.99
16505;HTU21D;8365;51.030;4.696;2022-08-26T01:14:20;22.16;118.99
16505;HTU21D;8365;51.030;4.696;2022-08-26T01:16:51;21.90;118.99
16505;HTU21D;8365;51.030;4.696;2022-08-26T01:19:37;21.88;118.99
16505;HTU21D;8365;51.030;4.696;2022-08-26T01:22:19;22.01;118.99
16505;HTU21D;8365;51.030;4.696;2022-08-26T01:24:52;22.11;118.99
16505;HTU21D;8365;51.030;4.696;2022-08-26T01:27:22;21.87;118.99
16505;HTU21D;8365;51.030;4.696;2022-08-26T01:29:53;21.85;118.99
16505;HTU21D;8365;51.030;4.696;2022-08-26T01:32:24;21.83;118.99
16505;HTU21D;8365;51.030;4.696;2022-08-26T01:34:56;21.94;118.99
16505;HTU21D;8365;51.030;4.696;2022-08-26T01:37:32;21.61;118.99
16505;HTU21D;8365;51.030;4.696;2022-08-26T01:40:05;21.67;118.99
16505;HTU21D;8365;51.030;4.696;2022-08-26T01:42:36;21.94;118.99
16505;HTU21D;8365;51.030;4.696;2022-08-26T01:45:13;21.89;118.99
16505;HTU21D;8365;51.030;4.696;2022-08-26T01:47:46;22.04;118.99
16505;HTU21D;8365;51.030;4.696;2022-08-26T01:50:22;21.85;118.99
16505;HTU21D;8365;51.030;4.696;2022-08-26T01:52:55;21.97;118.99
16505;HTU21D;8365;51.030;4.696;2022-08-26T01:55:26;21.67;118.99
16505;HTU21D;8365;51.030;4.696;2022-08-26T01:57:58;21.70;118.99
16505;HTU21D;8365;51.030;4.696;2022-08-26T02:00:29;21.65;118.99
16505;HTU21D;8365;51.030;4.696;2022-08-26T02:03:02;21.63;118.99
16505;HTU21D;8365;51.030;4.696;2022-08-26T02:05:56;21.70;118.99
16505;HTU21D;8365;51.030;4.696;2022-08-26T02:11:01;21.58;118.99
16505;HTU21D;8365;51.030;4.696;2022-08-26T02:13:39;21.75;118.99
16505;HTU21D;8365;51.030;4.696;2022-08-26T02:16:11;21.84;118.99
16505;HTU21D;8365;51.030;4.696;2022-08-26T02:18:42;21.95;118.99
16505;HTU21D;8365;51.030;4.696;2022-08-26T02:21:15;21.97;118.99
16505;HTU21D;8365;51.030;4.696;2022-08-26T02:23:46;21.80;118.99
16505;HTU21D;8365;51.030;4.696;2022-08-26T02:26:21;21.90;118.99
16505;HTU21D;8365;51.030;4.696;2022-08-26T02:28:55;21.75;118.99
16505;HTU21D;8365;51.030;4.696;2022-08-26T02:31:28;21.67;118.99
16505;HTU21D;8365;51.030;4.696;2022-08-26T02:34:13;21.52;118.99
16505;HTU21D;8365;51.030;4.696;2022-08-26T02:36:43;21.46;118.99
16505;HTU21D;8365;51.030;4.696;2022-08-26T02:39:14;21.57;118.99
16505;HTU21D;8365;51.030;4.696;2022-08-26T02:41:48;21.59;118.99
16505;HTU21D;8365;51.030;4.696;2022-08-26T02:44:18;21.51;118.99
16505;HTU21D;8365;51.030;4.696;2022-08-26T02:46:49;21.63;118.99
16505;HTU21D;8365;51.030;4.696;2022-08-26T02:49:20;21.54;118.99
16505;HTU21D;8365;51.030;4.696;2022-08-26T02:51:53;21.57;118.99
16505;HTU21D;8365;51.030;4.696;2022-08-26T02:54:23;21.70;118.99
16505;HTU21D;8365;51.030;4.696;2022-08-26T02:56:53;21.58;118.99
16505;HTU21D;8365;51.030;4.696;2022-08-26T02:59:24;21.63;118.99
16505;HTU21D;8365;51.030;4.696;2022-08-26T03:01:55;21.64;118.99
16505;HTU21D;8365;51.030;4.696;2022-08-26T03:04:25;21.81;118.99
16505;HTU21D;8365;51.030;4.696;2022-08-26T03:06:56;21.63;118.99
16505;HTU21D;8365;51.030;4.696;2022-08-26T03:09:27;21.69;118.99
16505;HTU21D;8365;51.030;4.696;2022-08-26T03:11:58;21.52;118.99
16505;HTU21D;8365;51.030;4.696;2022-08-26T03:14:29;21.48;118.99
16505;HTU21D;8365;51.030;4.696;2022-08-26T03:16:59;21.45;118.99
16505;HTU21D;8365;51.030;4.696;2022-08-26T03:19:30;21.38;118.99
16505;HTU21D;8365;51.030;4.696;2022-08-26T03:22:01;21.40;118.99
16505;HTU21D;8365;51.030;4.696;2022-08-26T03:24:32;21.35;118.99
16505;HTU21D;8365;51.030;4.696;2022-08-26T03:27:02;21.11;118.99
16505;HTU21D;8365;51.030;4.696;2022-08-26T03:29:33;21.29;118.99
16505;HTU21D;8365;51.030;4.696;2022-08-26T03:32:22;21.23;118.99
16505;HTU21D;8365;51.030;4.696;2022-08-26T03:34:53;21.21;118.99
16505;HTU21D;8365;51.030;4.696;2022-08-26T03:37:24;21.28;118.99
16505;HTU21D;8365;51.030;4.696;2022-08-26T03:39:54;21.23;118.99
16505;HTU21D;8365;51.030;4.696;2022-08-26T03:42:24;21.15;118.99
16505;HTU21D;8365;51.030;4.696;2022-08-26T03:44:58;20.87;118.99
16505;HTU21D;8365;51.030;4.696;2022-08-26T03:47:29;21.11;118.99
16505;HTU21D;8365;51.030;4.696;2022-08-26T03:50:00;21.06;118.99
16505;HTU21D;8365;51.030;4.696;2022-08-26T03:52:31;20.99;118.99
16505;HTU21D;8365;51.030;4.696;2022-08-26T03:55:04;20.98;118.99
16505;HTU21D;8365;51.030;4.696;2022-08-26T03:57:34;21.14;118.99
16505;HTU21D;8365;51.030;4.696;2022-08-26T04:00:07;21.06;118.99
16505;HTU21D;8365;51.030;4.696;2022-08-26T04:02:38;21.14;118.99
16505;HTU21D;8365;51.030;4.696;2022-08-26T04:05:09;21.21;118.99
16505;HTU21D;8365;51.030;4.696;2022-08-26T04:07:40;21.27;118.99
16505;HTU21D;8365;51.030;4.696;2022-08-26T04:10:13;21.15;118.99
16505;HTU21D;8365;51.030;4.696;2022-08-26T04:12:44;21.21;118.99
16505;HTU21D;8365;51.030;4.696;2022-08-26T04:15:17;21.18;118.99
16505;HTU21D;8365;51.030;4.696;2022-08-26T04:17:48;21.11;118.99
16505;HTU21D;8365;51.030;4.696;2022-08-26T04:20:18;21.00;118.99
16505;HTU21D;8365;51.030;4.696;2022-08-26T04:22:49;20.98;118.99
16505;HTU21D;8365;51.030;4.696;2022-08-26T04:25:20;20.83;118.99
16505;HTU21D;8365;51.030;4.696;2022-08-26T04:27:51;20.69;118.99
16505;HTU21D;8365;51.030;4.696;2022-08-26T04:30:21;20.65;118.99
16505;HTU21D;8365;51.030;4.696;2022-08-26T04:32:52;20.79;118.99
16505;HTU21D;8365;51.030;4.696;2022-08-26T04:35:23;20.56;118.99
16505;HTU21D;8365;51.030;4.696;2022-08-26T04:37:56;20.45;118.99
16505;HTU21D;8365;51.030;4.696;2022-08-26T04:40:26;20.58;118.99
16505;HTU21D;8365;51.030;4.696;2022-08-26T04:42:57;20.51;118.99
16505;HTU21D;8365;51.030;4.696;2022-08-26T04:45:27;20.48;118.99
16505;HTU21D;8365;51.030;4.696;2022-08-26T04:47:58;20.49;118.99
16505;HTU21D;8365;51.030;4.696;2022-08-26T04:50:28;20.70;118.99
16505;HTU21D;8365;51.030;4.696;2022-08-26T04:52:59;20.81;118.99
16505;HTU21D;8365;51.030;4.696;2022-08-26T04:55:30;20.88;118.99
16505;HTU21D;8365;51.030;4.696;2022-08-26T04:58:00;20.78;118.99
16505;HTU21D;8365;51.030;4.696;2022-08-26T05:00:30;20.71;118.99
16505;HTU21D;8365;51.030;4.696;2022-08-26T05:03:01;20.83;118.99
16505;HTU21D;8365;51.030;4.696;2022-08-26T05:05:31;20.87;118.99
16505;HTU21D;8365;51.030;4.696;2022-08-26T05:08:02;20.91;118.99
16505;HTU21D;8365;51.030;4.696;2022-08-26T05:10:32;20.88;118.99
16505;HTU21D;8365;51.030;4.696;2022-08-26T05:13:06;20.99;118.99
16505;HTU21D;8365;51.030;4.696;2022-08-26T05:15:39;20.96;118.99
16505;HTU21D;8365;51.030;4.696;2022-08-26T05:18:10;21.04;118.99
16505;HTU21D;8365;51.030;4.696;2022-08-26T05:20:47;21.01;118.99
16505;HTU21D;8365;51.030;4.696;2022-08-26T05:23:18;21.09;118.99
16505;HTU21D;8365;51.030;4.696;2022-08-26T05:25:53;20.99;118.99
16505;HTU21D;8365;51.030;4.696;2022-08-26T05:28:24;21.20;118.99
16505;HTU21D;8365;51.030;4.696;2022-08-26T05:30:55;21.20;118.99
16505;HTU21D;8365;51.030;4.696;2022-08-26T05:33:26;21.27;118.99
16505;HTU21D;8365;51.030;4.696;2022-08-26T05:35:56;21.33;118.99
16505;HTU21D;8365;51.030;4.696;2022-08-26T05:38:27;21.29;118.99
16505;HTU21D;8365;51.030;4.696;2022-08-26T05:40:57;21.35;118.99
16505;HTU21D;8365;51.030;4.696;2022-08-26T05:43:28;21.49;118.99
16505;HTU21D;8365;51.030;4.696;2022-08-26T05:46:06;21.57;118.99
16505;HTU21D;8365;51.030;4.696;2022-08-26T05:48:37;21.35;118.99
16505;HTU21D;8365;51.030;4.696;2022-08-26T05:51:09;21.61;118.99
16505;HTU21D;8365;51.030;4.696;2022-08-26T05:53:41;21.80;118.99
16505;HTU21D;8365;51.030;4.696;2022-08-26T05:56:12;21.85;118.99
16505;HTU21D;8365;51.030;4.696;2022-08-26T05:58:42;21.87;118.89
16505;HTU21D;8365;51.030;4.696;2022-08-26T06:01:15;21.92;118.44
16505;HTU21D;8365;51.030;4.696;2022-08-26T06:03:49;21.95;118.00
16505;HTU21D;8365;51.030;4.696;2022-08-26T06:06:30;21.88;118.07
16505;HTU21D;8365;51.030;4.696;2022-08-26T06:09:03;22.09;117.11
16505;HTU21D;8365;51.030;4.696;2022-08-26T06:11:34;22.12;117.07
16505;HTU21D;8365;51.030;4.696;2022-08-26T06:14:06;21.98;117.41
16505;HTU21D;8365;51.030;4.696;2022-08-26T06:16:40;22.10;116.81
16505;HTU21D;8365;51.030;4.696;2022-08-26T06:19:13;21.96;117.11
16505;HTU21D;8365;51.030;4.696;2022-08-26T06:21:46;21.96;117.34
16505;HTU21D;8365;51.030;4.696;2022-08-26T06:24:16;21.88;118.52
16505;HTU21D;8365;51.030;4.696;2022-08-26T06:27:06;21.80;118.99
16505;HTU21D;8365;51.030;4.696;2022-08-26T06:29:41;21.78;118.99
16505;HTU21D;8365;51.030;4.696;2022-08-26T06:32:11;21.78;118.99
16505;HTU21D;8365;51.030;4.696;2022-08-26T06:34:42;21.89;118.99
16505;HTU21D;8365;51.030;4.696;2022-08-26T06:37:12;22.06;117.75
16505;HTU21D;8365;51.030;4.696;2022-08-26T06:39:43;22.26;116.46
16505;HTU21D;8365;51.030;4.696;2022-08-26T06:42:13;22.26;115.86
16505;HTU21D;8365;51.030;4.696;2022-08-26T06:44:44;22.51;114.06
16505;HTU21D;8365;51.030;4.696;2022-08-26T06:47:14;22.24;116.25
16505;HTU21D;8365;51.030;4.696;2022-08-26T06:49:47;22.39;114.79
16505;HTU21D;8365;51.030;4.696;2022-08-26T06:52:17;22.51;114.04
16505;HTU21D;8365;51.030;4.696;2022-08-26T06:54:48;22.35;114.16
16505;HTU21D;8365;51.030;4.696;2022-08-26T06:57:18;22.42;114.05
16505;HTU21D;8365;51.030;4.696;2022-08-26T06:59:48;22.44;112.60
16505;HTU21D;8365;51.030;4.696;2022-08-26T07:02:19;22.49;112.92
16505;HTU21D;8365;51.030;4.696;2022-08-26T07:04:49;22.55;113.06
16505;HTU21D;8365;51.030;4.696;2022-08-26T07:07:20;22.81;111.61
16505;HTU21D;8365;51.030;4.696;2022-08-26T07:09:50;22.69;112.15
16505;HTU21D;8365;51.030;4.696;2022-08-26T07:12:21;22.88;109.74
16505;HTU21D;8365;51.030;4.696;2022-08-26T07:14:52;23.15;108.75
16505;HTU21D;8365;51.030;4.696;2022-08-26T07:17:22;23.28;108.53
16505;HTU21D;8365;51.030;4.696;2022-08-26T07:19:53;23.14;109.07
16505;HTU21D;8365;51.030;4.696;2022-08-26T07:22:23;23.12;108.40
16505;HTU21D;8365;51.030;4.696;2022-08-26T07:24:53;22.83;110.68
16505;HTU21D;8365;51.030;4.696;2022-08-26T07:27:26;22.92;110.07
16505;HTU21D;8365;51.030;4.696;2022-08-26T07:29:57;23.14;108.43
16505;HTU21D;8365;51.030;4.696;2022-08-26T07:32:27;23.21;108.04
16505;HTU21D;8365;51.030;4.696;2022-08-26T07:34:58;22.96;110.00
16505;HTU21D;8365;51.030;4.696;2022-08-26T07:37:28;22.98;110.47
16505;HTU21D;8365;51.030;4.696;2022-08-26T07:39:59;23.23;108.80
16505;HTU21D;8365;51.030;4.696;2022-08-26T07:42:29;23.24;108.72
16505;HTU21D;8365;51.030;4.696;2022-08-26T07:45:00;23.18;108.45
16505;HTU21D;8365;51.030;4.696;2022-08-26T07:47:31;23.41;108.69
16505;HTU21D;8365;51.030;4.696;2022-08-26T07:50:01;23.46;108.10
16505;HTU21D;8365;51.030;4.696;2022-08-26T07:52:32;23.67;107.08
16505;HTU21D;8365;51.030;4.696;2022-08-26T07:55:04;23.83;106.18
16505;HTU21D;8365;51.030;4.696;2022-08-26T07:57:36;23.83;106.21
16505;HTU21D;8365;51.030;4.696;2022-08-26T08:00:11;23.97;105.10
16505;HTU21D;8365;51.030;4.696;2022-08-26T08:02:42;23.82;105.49
16505;HTU21D;8365;51.030;4.696;2022-08-26T08:05:18;23.88;105.37
16505;HTU21D;8365;51.030;4.696;2022-08-26T08:07:49;23.88;105.69
16505;HTU21D;8365;51.030;4.696;2022-08-26T08:10:22;23.74;105.70
16505;HTU21D;8365;51.030;4.696;2022-08-26T08:12:54;23.91;105.17
16505;HTU21D;8365;51.030;4.696;2022-08-26T08:15:28;23.82;105.44
16505;HTU21D;8365;51.030;4.696;2022-08-26T08:18:03;23.68;106.21
16505;HTU21D;8365;51.030;4.696;2022-08-26T08:20:34;23.80;105.76
16505;HTU21D;8365;51.030;4.696;2022-08-26T08:23:05;23.83;105.15
16505;HTU21D;8365;51.030;4.696;2022-08-26T08:25:35;23.98;105.04
16505;HTU21D;8365;51.030;4.696;2022-08-26T08:28:06;23.91;105.18
16505;HTU21D;8365;51.030;4.696;2022-08-26T08:30:37;23.71;106.65
16505;HTU21D;8365;51.030;4.696;2022-08-26T08:33:08;23.72;106.34
16505;HTU21D;8365;51.030;4.696;2022-08-26T08:35:38;23.81;106.59
16505;HTU21D;8365;51.030;4.696;2022-08-26T08:38:11;23.80;106.43
16505;HTU21D;8365;51.030;4.696;2022-08-26T08:40:44;23.66;106.75
16505;HTU21D;8365;51.030;4.696;2022-08-26T08:43:38;23.73;105.80
16505;HTU21D;8365;51.030;4.696;2022-08-26T08:46:11;23.75;106.29
16505;HTU21D;8365;51.030;4.696;2022-08-26T08:48:47;23.94;105.56
16505;HTU21D;8365;51.030;4.696;2022-08-26T08:51:31;24.16;104.69
16505;HTU21D;8365;51.030;4.696;2022-08-26T08:54:04;23.76;106.07
16505;HTU21D;8365;51.030;4.696;2022-08-26T08:56:46;24.10;104.59
16505;HTU21D;8365;51.030;4.696;2022-08-26T08:59:23;24.08;103.73
16505;HTU21D;8365;51.030;4.696;2022-08-26T09:07:43;23.87;104.11
16505;HTU21D;8365;51.030;4.696;2022-08-26T09:10:40;24.03;102.96
16505;HTU21D;8365;51.030;4.696;2022-08-26T09:13:17;24.19;102.99
16505;HTU21D;8365;51.030;4.696;2022-08-26T09:16:17;24.48;101.03
16505;HTU21D;8365;51.030;4.696;2022-08-26T09:21:28;24.47;100.75
16505;HTU21D;8365;51.030;4.696;2022-08-26T09:23:59;24.41;101.44
16505;HTU21D;8365;51.030;4.696;2022-08-26T09:31:48;24.56;99.64
16505;HTU21D;8365;51.030;4.696;2022-08-26T09:36:54;24.33;99.45
16505;HTU21D;8365;51.030;4.696;2022-08-26T09:39:35;24.21;100.38
16505;HTU21D;8365;51.030;4.696;2022-08-26T09:42:20;24.05;101.31
16505;HTU21D;8365;51.030;4.696;2022-08-26T09:45:00;24.03;101.89
16505;HTU21D;8365;51.030;4.696;2022-08-26T09:47:38;24.20;101.39
16505;HTU21D;8365;51.030;4.696;2022-08-26T09:50:18;24.28;101.20
16505;HTU21D;8365;51.030;4.696;2022-08-26T09:55:45;24.10;101.26
16505;HTU21D;8365;51.030;4.696;2022-08-26T09:58:40;23.89;101.93
16505;HTU21D;8365;51.030;4.696;2022-08-26T10:04:03;24.27;100.77
16505;HTU21D;8365;51.030;4.696;2022-08-26T10:07:31;24.32;100.13
16505;HTU21D;8365;51.030;4.696;2022-08-26T10:09:38;24.36;99.53
16505;HTU21D;8365;51.030;4.696;2022-08-26T10:12:12;24.49;98.54
16505;HTU21D;8365;51.030;4.696;2022-08-26T10:14:51;24.47;99.71
16505;HTU21D;8365;51.030;4.696;2022-08-26T10:20:06;24.39;100.43
16505;HTU21D;8365;51.030;4.696;2022-08-26T10:22:58;24.50;99.80
16505;HTU21D;8365;51.030;4.696;2022-08-26T10:25:55;24.29;99.10
16505;HTU21D;8365;51.030;4.696;2022-08-26T10:28:59;24.44;97.56
16505;HTU21D;8365;51.030;4.696;2022-08-26T10:31:55;24.23;98.76
16505;HTU21D;8365;51.030;4.696;2022-08-26T10:34:27;24.39;98.85
16505;HTU21D;8365;51.030;4.696;2022-08-26T10:37:01;23.95;100.43
16505;HTU21D;8365;51.030;4.696;2022-08-26T10:39:36;24.31;100.13
16505;HTU21D;8365;51.030;4.696;2022-08-26T10:42:15;24.26;99.42
16505;HTU21D;8365;51.030;4.696;2022-08-26T10:44:50;24.31;99.74
16505;HTU21D;8365;51.030;4.696;2022-08-26T10:47:32;24.24;100.12
16505;HTU21D;8365;51.030;4.696;2022-08-26T10:50:04;24.32;99.16
16505;HTU21D;8365;51.030;4.696;2022-08-26T10:55:21;23.81;101.14
16505;HTU21D;8365;51.030;4.696;2022-08-26T11:01:12;24.14;100.02
16505;HTU21D;8365;51.030;4.696;2022-08-26T11:06:45;23.99;100.68
16505;HTU21D;8365;51.030;4.696;2022-08-26T11:09:44;24.00;100.65
16505;HTU21D;8365;51.030;4.696;2022-08-26T11:15:55;24.21;99.69
16505;HTU21D;8365;51.030;4.696;2022-08-26T11:18:08;24.18;99.44
16505;HTU21D;8365;51.030;4.696;2022-08-26T11:20:45;24.13;99.37
16505;HTU21D;8365;51.030;4.696;2022-08-26T11:28:51;24.26;98.54
16505;HTU21D;8365;51.030;4.696;2022-08-26T11:33:59;24.89;96.68
16505;HTU21D;8365;51.030;4.696;2022-08-26T11:39:46;24.56;97.22
16505;HTU21D;8365;51.030;4.696;2022-08-26T11:45:14;24.80;96.45
16505;HTU21D;8365;51.030;4.696;2022-08-26T11:47:45;25.03;96.32
16505;HTU21D;8365;51.030;4.696;2022-08-26T11:50:23;25.02;96.10
16505;HTU21D;8365;51.030;4.696;2022-08-26T11:53:00;25.12;95.40
16505;HTU21D;8365;51.030;4.696;2022-08-26T11:55:35;25.17;93.80
16505;HTU21D;8365;51.030;4.696;2022-08-26T11:58:11;25.46;92.21
16505;HTU21D;8365;51.030;4.696;2022-08-26T12:03:20;25.39;92.39
16505;HTU21D;8365;51.030;4.696;2022-08-26T12:05:52;25.06;92.82
16505;HTU21D;8365;51.030;4.696;2022-08-26T12:08:25;25.24;93.37
16505;HTU21D;8365;51.030;4.696;2022-08-26T12:11:02;25.40;91.86
16505;HTU21D;8365;51.030;4.696;2022-08-26T12:13:35;25.64;91.57
16505;HTU21D;8365;51.030;4.696;2022-08-26T12:16:08;25.46;91.05
16505;HTU21D;8365;51.030;4.696;2022-08-26T12:18:38;25.35;90.62
16505;HTU21D;8365;51.030;4.696;2022-08-26T12:21:18;25.69;89.90
16505;HTU21D;8365;51.030;4.696;2022-08-26T12:23:53;25.74;89.46
16505;HTU21D;8365;51.030;4.696;2022-08-26T12:26:31;25.50;89.84
16505;HTU21D;8365;51.030;4.696;2022-08-26T12:29:08;25.59;89.76
16505;HTU21D;8365;51.030;4.696;2022-08-26T12:31:41;25.59;89.54
16505;HTU21D;8365;51.030;4.696;2022-08-26T12:34:14;25.59;89.61
16505;HTU21D;8365;51.030;4.696;2022-08-26T12:36:52;25.56;90.63
16505;HTU21D;8365;51.030;4.696;2022-08-26T12:39:33;25.86;89.49
16505;HTU21D;8365;51.030;4.696;2022-08-26T12:42:38;25.86;88.43
16505;HTU21D;8365;51.030;4.696;2022-08-26T12:45:09;25.76;88.60
16505;HTU21D;8365;51.030;4.696;2022-08-26T12:47:41;25.83;89.40
16505;HTU21D;8365;51.030;4.696;2022-08-26T12:50:34;26.22;88.25
16505;HTU21D;8365;51.030;4.696;2022-08-26T12:53:13;26.20;88.46
16505;HTU21D;8365;51.030;4.696;2022-08-26T12:55:46;26.08;88.24
16505;HTU21D;8365;51.030;4.696;2022-08-26T13:00:57;25.79;88.86
16505;HTU21D;8365;51.030;4.696;2022-08-26T13:03:41;25.39;89.96
16505;HTU21D;8365;51.030;4.696;2022-08-26T13:09:27;25.44;91.37
16505;HTU21D;8365;51.030;4.696;2022-08-26T13:14:24;24.89;93.54
16505;HTU21D;8365;51.030;4.696;2022-08-26T13:16:55;24.74;94.98
16505;HTU21D;8365;51.030;4.696;2022-08-26T13:19:25;24.68;95.94
16505;HTU21D;8365;51.030;4.696;2022-08-26T13:21:58;24.50;95.12
16505;HTU21D;8365;51.030;4.696;2022-08-26T13:24:37;24.86;94.59
16505;HTU21D;8365;51.030;4.696;2022-08-26T13:27:11;25.13;93.19
16505;HTU21D;8365;51.030;4.696;2022-08-26T13:29:42;25.39;92.42
16505;HTU21D;8365;51.030;4.696;2022-08-26T13:32:12;25.14;92.49
16505;HTU21D;8365;51.030;4.696;2022-08-26T13:34:46;25.09;93.03
16505;HTU21D;8365;51.030;4.696;2022-08-26T13:37:17;25.08;92.37
16505;HTU21D;8365;51.030;4.696;2022-08-26T13:39:52;25.09;92.57
16505;HTU21D;8365;51.030;4.696;2022-08-26T13:42:23;25.67;91.27
16505;HTU21D;8365;51.030;4.696;2022-08-26T13:44:53;25.75;90.77
16505;HTU21D;8365;51.030;4.696;2022-08-26T13:47:27;26.17;89.57
16505;HTU21D;8365;51.030;4.696;2022-08-26T13:49:57;26.41;87.44
16505;HTU21D;8365;51.030;4.696;2022-08-26T13:52:28;26.37;87.83
16505;HTU21D;8365;51.030;4.696;2022-08-26T13:54:59;26.51;88.18
16505;HTU21D;8365;51.030;4.696;2022-08-26T13:57:29;26.85;86.57
16505;HTU21D;8365;51.030;4.696;2022-08-26T14:00:00;26.76;86.61
16505;HTU21D;8365;51.030;4.696;2022-08-26T14:02:30;26.75;85.01
16505;HTU21D;8365;51.030;4.696;2022-08-26T14:05:01;26.64;85.83
16505;HTU21D;8365;51.030;4.696;2022-08-26T14:07:33;26.30;86.29
16505;HTU21D;8365;51.030;4.696;2022-08-26T14:10:05;26.66;84.50
16505;HTU21D;8365;51.030;4.696;2022-08-26T14:12:36;26.53;85.09
16505;HTU21D;8365;51.030;4.696;2022-08-26T14:15:07;26.45;85.13
16505;HTU21D;8365;51.030;4.696;2022-08-26T14:17:37;26.37;86.35
16505;HTU21D;8365;51.030;4.696;2022-08-26T14:20:11;26.87;84.16
16505;HTU21D;8365;51.030;4.696;2022-08-26T14:22:43;26.87;84.80
16505;HTU21D;8365;51.030;4.696;2022-08-26T14:25:14;26.90;84.80
16505;HTU21D;8365;51.030;4.696;2022-08-26T14:27:44;27.05;82.97
16505;HTU21D;8365;51.030;4.696;2022-08-26T14:30:19;26.80;83.61
16505;HTU21D;8365;51.030;4.696;2022-08-26T14:32:53;26.90;83.18
16505;HTU21D;8365;51.030;4.696;2022-08-26T14:35:27;26.56;84.87
16505;HTU21D;8365;51.030;4.696;2022-08-26T14:37:58;26.92;83.26
16505;HTU21D;8365;51.030;4.696;2022-08-26T14:40:30;26.48;85.74
16505;HTU21D;8365;51.030;4.696;2022-08-26T14:43:00;26.38;85.76
16505;HTU21D;8365;51.030;4.696;2022-08-26T14:45:34;25.91;86.34
16505;HTU21D;8365;51.030;4.696;2022-08-26T14:48:09;26.12;85.70
16505;HTU21D;8365;51.030;4.696;2022-08-26T14:50:40;26.06;85.96
16505;HTU21D;8365;51.030;4.696;2022-08-26T14:53:10;25.97;86.55
16505;HTU21D;8365;51.030;4.696;2022-08-26T14:55:59;25.62;87.81
16505;HTU21D;8365;51.030;4.696;2022-08-26T14:58:30;25.97;85.94
16505;HTU21D;8365;51.030;4.696;2022-08-26T15:01:00;26.38;84.13
16505;HTU21D;8365;51.030;4.696;2022-08-26T15:03:31;26.33;84.45
16505;HTU21D;8365;51.030;4.696;2022-08-26T15:06:01;26.27;84.58
16505;HTU21D;8365;51.030;4.696;2022-08-26T15:08:32;26.41;83.45
16505;HTU21D;8365;51.030;4.696;2022-08-26T15:11:05;26.55;83.41
16505;HTU21D;8365;51.030;4.696;2022-08-26T15:13:36;26.46;83.58
16505;HTU21D;8365;51.030;4.696;2022-08-26T15:16:06;26.60;83.77
16505;HTU21D;8365;51.030;4.696;2022-08-26T15:18:36;26.63;82.75
16505;HTU21D;8365;51.030;4.696;2022-08-26T15:21:08;26.96;81.65
16505;HTU21D;8365;51.030;4.696;2022-08-26T15:23:38;26.73;82.88
16505;HTU21D;8365;51.030;4.696;2022-08-26T15:26:10;26.69;82.94
16505;HTU21D;8365;51.030;4.696;2022-08-26T15:28:41;26.71;82.37
16505;HTU21D;8365;51.030;4.696;2022-08-26T15:31:11;27.02;81.65
16505;HTU21D;8365;51.030;4.696;2022-08-26T15:33:42;27.09;81.40
16505;HTU21D;8365;51.030;4.696;2022-08-26T15:36:13;27.06;80.76
16505;HTU21D;8365;51.030;4.696;2022-08-26T15:38:44;26.68;81.68
16505;HTU21D;8365;51.030;4.696;2022-08-26T15:41:14;27.66;78.93
16505;HTU21D;8365;51.030;4.696;2022-08-26T15:43:45;28.53;74.70
16505;HTU21D;8365;51.030;4.696;2022-08-26T15:46:15;29.11;71.88
16505;HTU21D;8365;51.030;4.696;2022-08-26T15:48:46;30.20;67.94
16505;HTU21D;8365;51.030;4.696;2022-08-26T15:51:22;31.09;64.99
16505;HTU21D;8365;51.030;4.696;2022-08-26T15:53:54;31.49;61.59
16505;HTU21D;8365;51.030;4.696;2022-08-26T15:56:27;30.75;63.29
16505;HTU21D;8365;51.030;4.696;2022-08-26T15:58:59;30.92;62.18
16505;HTU21D;8365;51.030;4.696;2022-08-26T16:01:29;31.97;57.06
16505;HTU21D;8365;51.030;4.696;2022-08-26T16:04:01;31.51;57.98
16505;HTU21D;8365;51.030;4.696;2022-08-26T16:06:34;31.15;57.18
16505;HTU21D;8365;51.030;4.696;2022-08-26T16:09:05;30.90;57.83
16505;HTU21D;8365;51.030;4.696;2022-08-26T16:11:36;30.93;57.09
16505;HTU21D;8365;51.030;4.696;2022-08-26T16:14:07;31.50;54.50
16505;HTU21D;8365;51.030;4.696;2022-08-26T16:16:38;31.53;54.12
16505;HTU21D;8365;51.030;4.696;2022-08-26T16:19:09;29.86;57.74
16505;HTU21D;8365;51.030;4.696;2022-08-26T16:21:41;30.46;56.87
16505;HTU21D;8365;51.030;4.696;2022-08-26T16:24:12;30.65;56.16
16505;HTU21D;8365;51.030;4.696;2022-08-26T16:26:43;30.66;56.06
16505;HTU21D;8365;51.030;4.696;2022-08-26T16:29:15;30.70;55.13
16505;HTU21D;8365;51.030;4.696;2022-08-26T16:31:46;30.70;55.23
16505;HTU21D;8365;51.030;4.696;2022-08-26T16:34:20;30.46;56.23
16505;HTU21D;8365;51.030;4.696;2022-08-26T16:36:51;30.63;56.00
16505;HTU21D;8365;51.030;4.696;2022-08-26T16:39:21;30.70;55.49
16505;HTU21D;8365;51.030;4.696;2022-08-26T16:41:52;30.63;54.89
16505;HTU21D;8365;51.030;4.696;2022-08-26T16:44:22;30.80;53.96
16505;HTU21D;8365;51.030;4.696;2022-08-26T16:46:53;30.05;54.92
16505;HTU21D;8365;51.030;4.696;2022-08-26T16:49:25;30.55;54.46
16505;HTU21D;8365;51.030;4.696;2022-08-26T16:51:58;30.31;54.41
16505;HTU21D;8365;51.030;4.696;2022-08-26T16:54:31;30.97;52.85
16505;HTU21D;8365;51.030;4.696;2022-08-26T16:57:01;31.40;50.96
16505;HTU21D;8365;51.030;4.696;2022-08-26T16:59:32;31.14;51.82
16505;HTU21D;8365;51.030;4.696;2022-08-26T17:02:03;31.33;50.27
16505;HTU21D;8365;51.030;4.696;2022-08-26T17:04:34;31.37;50.27